sensor_id;sensor_type;location;lat;lon;timestamp;temperature;humidity
20432;DHT22;10375;49.136;10.366;2023-05-16T00:01:03;9.30;99.90
20432;DHT22;10375;49.136;10.366;2023-05-16T00:03:30;9.30;99.90
20432;DHT22;10375;49.136;10.366;2023-05-16T00:06:10;9.20;99.90
20432;DHT22;10375;49.136;10.366;2023-05-16T00:08:38;9.30;99.90
20432;DHT22;10375;49.136;10.366;2023-05-16T00:11:05;9.20;99.90
20432;DHT22;10375;49.136;10.366;2023-05-16T00:13:32;9.20;99.90
20432;DHT22;10375;49.136;10.366;2023-05-16T00:15:59;9.20;99.90
20432;DHT22;10375;49.136;10.366;2023-05-16T00:18:28;9.10;99.90
20432;DHT22;10375;49.136;10.366;2023-05-16T00:20:56;9.10;99.90
20432;DHT22;10375;49.136;10.366;2023-05-16T00:23:23;9.10;99.90
20432;DHT22;10375;49.136;10.366;2023-05-16T00:25:50;9.10;99.90
20432;DHT22;10375;49.136;10.366;2023-05-16T00:28:17;9.20;99.90
20432;DHT22;10375;49.136;10.366;2023-05-16T00:30:44;9.10;99.90
20432;DHT22;10375;49.136;10.366;2023-05-16T00:33:12;9.10;99.90
20432;DHT22;10375;49.136;10.366;2023-05-16T00:35:39;9.10;99.90
20432;DHT22;10375;49.136;10.366;2023-05-16T00:38:06;9.10;99.90
20432;DHT22;10375;49.136;10.366;2023-05-16T00:40:33;9.10;99.90
20432;DHT22;10375;49.136;10.366;2023-05-16T00:43:00;9.00;99.90
20432;DHT22;10375;49.136;10.366;2023-05-16T00:45:27;9.00;99.90
20432;DHT22;10375;49.136;10.366;2023-05-16T00:47:55;8.90;99.90
20432;DHT22;10375;49.136;10.366;2023-05-16T00:50:22;8.90;99.90
20432;DHT22;10375;49.136;10.366;2023-05-16T00:52:49;8.80;99.90
20432;DHT22;10375;49.136;10.366;2023-05-16T00:55:16;8.80;99.90
20432;DHT22;10375;49.136;10.366;2023-05-16T00:57:43;8.70;99.90
20432;DHT22;10375;49.136;10.366;2023-05-16T01:00:11;8.70;99.90
20432;DHT22;10375;49.136;10.366;2023-05-16T01:02:41;8.70;99.90
20432;DHT22;10375;49.136;10.366;2023-05-16T01:05:09;8.70;99.90
20432;DHT22;10375;49.136;10.366;2023-05-16T01:07:36;8.60;99.90
20432;DHT22;10375;49.136;10.366;2023-05-16T01:10:04;8.70;99.90
20432;DHT22;10375;49.136;10.366;2023-05-16T01:15:21;8.50;99.90
20432;DHT22;10375;49.136;10.366;2023-05-16T01:17:52;8.50;99.90
20432;DHT22;10375;49.136;10.366;2023-05-16T01:20:32;8.60;99.90
20432;DHT22;10375;49.136;10.366;2023-05-16T01:23:11;8.60;99.90
20432;DHT22;10375;49.136;10.366;2023-05-16T01:26:14;8.60;99.90
20432;DHT22;10375;49.136;10.366;2023-05-16T01:28:44;8.60;99.90
20432;DHT22;10375;49.136;10.366;2023-05-16T01:31:12;8.60;99.90
20432;DHT22;10375;49.136;10.366;2023-05-16T01:33:39;8.50;99.90
20432;DHT22;10375;49.136;10.366;2023-05-16T01:36:36;8.40;99.90
20432;DHT22;10375;49.136;10.366;2023-05-16T01:39:43;8.30;99.90
20432;DHT22;10375;49.136;10.366;2023-05-16T01:42:12;8.30;99.90
20432;DHT22;10375;49.136;10.366;2023-05-16T01:44:49;8.30;99.90
20432;DHT22;10375;49.136;10.366;2023-05-16T01:47:19;8.20;99.90
20432;DHT22;10375;49.136;10.366;2023-05-16T01:50:15;8.20;99.90
20432;DHT22;10375;49.136;10.366;2023-05-16T01:52:58;8.20;99.90
20432;DHT22;10375;49.136;10.366;2023-05-16T01:58:01;8.10;99.90
20432;DHT22;10375;49.136;10.366;2023-05-16T02:00:29;8.10;99.90
20432;DHT22;10375;49.136;10.366;2023-05-16T02:02:57;8.10;99.90
20432;DHT22;10375;49.136;10.366;2023-05-16T02:05:24;8.10;99.90
20432;DHT22;10375;49.136;10.366;2023-05-16T02:07:52;8.10;99.90
20432;DHT22;10375;49.136;10.366;2023-05-16T02:10:19;8.00;99.90
20432;DHT22;10375;49.136;10.366;2023-05-16T02:12:47;8.00;99.90
20432;DHT22;10375;49.136;10.366;2023-05-16T02:15:14;8.00;99.90
20432;DHT22;10375;49.136;10.366;2023-05-16T02:17:41;8.00;99.90
20432;DHT22;10375;49.136;10.366;2023-05-16T02:20:09;8.10;99.90
20432;DHT22;10375;49.136;10.366;2023-05-16T02:22:37;8.10;99.90
20432;DHT22;10375;49.136;10.366;2023-05-16T02:25:08;8.10;99.90
20432;DHT22;10375;49.136;10.366;2023-05-16T02:27:35;8.00;99.90
20432;DHT22;10375;49.136;10.366;2023-05-16T02:30:03;7.90;99.90
20432;DHT22;10375;49.136;10.366;2023-05-16T02:32:31;7.90;99.90
20432;DHT22;10375;49.136;10.366;2023-05-16T02:34:59;7.80;99.90
20432;DHT22;10375;49.136;10.366;2023-05-16T02:37:26;7.70;99.90
20432;DHT22;10375;49.136;10.366;2023-05-16T02:39:53;7.70;99.90
20432;DHT22;10375;49.136;10.366;2023-05-16T02:42:21;7.70;99.90
20432;DHT22;10375;49.136;10.366;2023-05-16T02:44:48;7.70;99.90
20432;DHT22;10375;49.136;10.366;2023-05-16T02:47:15;7.60;99.90
20432;DHT22;10375;49.136;10.366;2023-05-16T02:49:42;7.60;99.90
20432;DHT22;10375;49.136;10.366;2023-05-16T02:52:09;7.60;99.90
20432;DHT22;10375;49.136;10.366;2023-05-16T02:54:37;7.60;99.90
20432;DHT22;10375;49.136;10.366;2023-05-16T02:57:04;7.60;99.90
20432;DHT22;10375;49.136;10.366;2023-05-16T02:59:32;7.50;99.90
20432;DHT22;10375;49.136;10.366;2023-05-16T03:01:59;7.40;99.90
20432;DHT22;10375;49.136;10.366;2023-05-16T03:04:26;7.40;99.90
20432;DHT22;10375;49.136;10.366;2023-05-16T03:06:53;7.30;99.90
20432;DHT22;10375;49.136;10.366;2023-05-16T03:09:21;7.30;99.90
20432;DHT22;10375;49.136;10.366;2023-05-16T03:11:48;7.30;99.90
20432;DHT22;10375;49.136;10.366;2023-05-16T03:14:15;7.30;99.90
20432;DHT22;10375;49.136;10.366;2023-05-16T03:16:42;7.30;99.90
20432;DHT22;10375;49.136;10.366;2023-05-16T03:19:10;7.30;99.90
20432;DHT22;10375;49.136;10.366;2023-05-16T03:21:37;7.20;99.90
20432;DHT22;10375;49.136;10.366;2023-05-16T03:24:04;7.20;99.90
20432;DHT22;10375;49.136;10.366;2023-05-16T03:26:31;7.20;99.90
20432;DHT22;10375;49.136;10.366;2023-05-16T03:28:59;7.20;99.90
20432;DHT22;10375;49.136;10.366;2023-05-16T03:31:26;7.30;99.90
20432;DHT22;10375;49.136;10.366;2023-05-16T03:33:53;7.30;99.90
20432;DHT22;10375;49.136;10.366;2023-05-16T03:36:20;7.50;99.90
20432;DHT22;10375;49.136;10.366;2023-05-16T03:38:50;7.50;99.90
20432;DHT22;10375;49.136;10.366;2023-05-16T03:41:17;7.50;99.90
20432;DHT22;10375;49.136;10.366;2023-05-16T03:43:44;7.60;99.90
20432;DHT22;10375;49.136;10.366;2023-05-16T03:46:11;7.60;99.90
20432;DHT22;10375;49.136;10.366;2023-05-16T03:48:38;7.70;99.90
20432;DHT22;10375;49.136;10.366;2023-05-16T03:51:05;7.70;99.90
20432;DHT22;10375;49.136;10.366;2023-05-16T03:53:33;7.80;99.90
20432;DHT22;10375;49.136;10.366;2023-05-16T03:56:00;7.80;99.90
20432;DHT22;10375;49.136;10.366;2023-05-16T03:58:27;7.90;99.90
20432;DHT22;10375;49.136;10.366;2023-05-16T04:00:54;7.90;99.90
20432;DHT22;10375;49.136;10.366;2023-05-16T04:03:21;8.00;99.90
20432;DHT22;10375;49.136;10.366;2023-05-16T04:05:54;7.90;99.90
20432;DHT22;10375;49.136;10.366;2023-05-16T04:08:22;7.90;99.90
20432;DHT22;10375;49.136;10.366;2023-05-16T04:10:49;7.80;99.90
20432;DHT22;10375;49.136;10.366;2023-05-16T04:13:16;7.90;99.90
20432;DHT22;10375;49.136;10.366;2023-05-16T04:15:43;8.00;99.90
20432;DHT22;10375;49.136;10.366;2023-05-16T04:18:11;8.00;99.90
20432;DHT22;10375;49.136;10.366;2023-05-16T04:20:38;8.20;99.90
20432;DHT22;10375;49.136;10.366;2023-05-16T04:23:05;8.20;99.90
20432;DHT22;10375;49.136;10.366;2023-05-16T04:25:32;8.30;99.90
20432;DHT22;10375;49.136;10.366;2023-05-16T04:27:59;8.40;99.90
20432;DHT22;10375;49.136;10.366;2023-05-16T04:30:27;8.40;99.90
20432;DHT22;10375;49.136;10.366;2023-05-16T04:32:54;8.50;99.90
20432;DHT22;10375;49.136;10.366;2023-05-16T04:35:23;8.50;99.90
20432;DHT22;10375;49.136;10.366;2023-05-16T04:37:50;8.60;99.90
20432;DHT22;10375;49.136;10.366;2023-05-16T04:40:19;8.60;99.90
20432;DHT22;10375;49.136;10.366;2023-05-16T04:42:47;8.70;99.90
20432;DHT22;10375;49.136;10.366;2023-05-16T04:45:14;8.80;99.90
20432;DHT22;10375;49.136;10.366;2023-05-16T04:47:41;8.80;99.90
20432;DHT22;10375;49.136;10.366;2023-05-16T04:50:08;8.90;99.90
20432;DHT22;10375;49.136;10.366;2023-05-16T04:52:36;9.00;99.90
20432;DHT22;10375;49.136;10.366;2023-05-16T04:55:04;9.10;99.90
20432;DHT22;10375;49.136;10.366;2023-05-16T04:57:31;9.10;99.90
20432;DHT22;10375;49.136;10.366;2023-05-16T04:59:58;9.20;99.90
20432;DHT22;10375;49.136;10.366;2023-05-16T05:02:25;9.30;99.90
20432;DHT22;10375;49.136;10.366;2023-05-16T05:04:53;9.30;99.90
20432;DHT22;10375;49.136;10.366;2023-05-16T05:07:20;9.40;99.90
20432;DHT22;10375;49.136;10.366;2023-05-16T05:09:47;9.50;99.90
20432;DHT22;10375;49.136;10.366;2023-05-16T05:12:14;9.70;99.90
20432;DHT22;10375;49.136;10.366;2023-05-16T05:14:41;9.80;99.90
20432;DHT22;10375;49.136;10.366;2023-05-16T05:17:08;9.90;99.90
20432;DHT22;10375;49.136;10.366;2023-05-16T05:19:35;10.00;99.90
20432;DHT22;10375;49.136;10.366;2023-05-16T05:22:03;10.10;99.90
20432;DHT22;10375;49.136;10.366;2023-05-16T05:24:30;10.30;99.90
20432;DHT22;10375;49.136;10.366;2023-05-16T05:26:57;10.50;99.90
20432;DHT22;10375;49.136;10.366;2023-05-16T05:29:24;11.00;99.90
20432;DHT22;10375;49.136;10.366;2023-05-16T05:31:51;11.40;99.90
20432;DHT22;10375;49.136;10.366;2023-05-16T05:34:18;11.50;99.90
20432;DHT22;10375;49.136;10.366;2023-05-16T05:36:45;11.60;99.90
20432;DHT22;10375;49.136;10.366;2023-05-16T05:39:12;11.70;99.90
20432;DHT22;10375;49.136;10.366;2023-05-16T05:41:39;11.80;99.90
20432;DHT22;10375;49.136;10.366;2023-05-16T05:44:06;11.90;99.90
20432;DHT22;10375;49.136;10.366;2023-05-16T05:46:34;12.10;99.90
20432;DHT22;10375;49.136;10.366;2023-05-16T05:49:01;12.30;99.90
20432;DHT22;10375;49.136;10.366;2023-05-16T05:51:28;12.50;99.90
20432;DHT22;10375;49.136;10.366;2023-05-16T05:53:55;12.80;99.90
20432;DHT22;10375;49.136;10.366;2023-05-16T05:56:23;13.20;99.90
20432;DHT22;10375;49.136;10.366;2023-05-16T05:58:50;13.60;99.90
20432;DHT22;10375;49.136;10.366;2023-05-16T06:01:17;14.00;99.90
20432;DHT22;10375;49.136;10.366;2023-05-16T06:03:46;14.60;99.90
20432;DHT22;10375;49.136;10.366;2023-05-16T06:06:14;15.30;99.90
20432;DHT22;10375;49.136;10.366;2023-05-16T06:08:41;17.10;99.90
20432;DHT22;10375;49.136;10.366;2023-05-16T06:11:08;19.70;99.90
20432;DHT22;10375;49.136;10.366;2023-05-16T06:13:35;21.90;99.90
20432;DHT22;10375;49.136;10.366;2023-05-16T06:16:02;23.60;99.90
20432;DHT22;10375;49.136;10.366;2023-05-16T06:18:30;24.70;96.80
20432;DHT22;10375;49.136;10.366;2023-05-16T06:20:57;25.40;92.90
20432;DHT22;10375;49.136;10.366;2023-05-16T06:23:24;25.90;91.90
20432;DHT22;10375;49.136;10.366;2023-05-16T06:25:51;26.30;90.60
20432;DHT22;10375;49.136;10.366;2023-05-16T06:28:18;26.90;89.00
20432;DHT22;10375;49.136;10.366;2023-05-16T06:30:45;27.30;87.50
20432;DHT22;10375;49.136;10.366;2023-05-16T06:33:14;27.60;84.40
20432;DHT22;10375;49.136;10.366;2023-05-16T06:35:41;27.60;79.30
20432;DHT22;10375;49.136;10.366;2023-05-16T06:38:08;26.70;81.30
20432;DHT22;10375;49.136;10.366;2023-05-16T06:40:39;26.40;82.20
20432;DHT22;10375;49.136;10.366;2023-05-16T06:43:07;26.30;82.40
20432;DHT22;10375;49.136;10.366;2023-05-16T06:45:34;26.80;83.30
20432;DHT22;10375;49.136;10.366;2023-05-16T06:48:03;26.80;81.50
20432;DHT22;10375;49.136;10.366;2023-05-16T06:50:31;26.50;81.00
20432;DHT22;10375;49.136;10.366;2023-05-16T06:52:58;26.40;79.10
20432;DHT22;10375;49.136;10.366;2023-05-16T06:55:26;26.00;80.90
20432;DHT22;10375;49.136;10.366;2023-05-16T06:57:54;25.30;83.00
20432;DHT22;10375;49.136;10.366;2023-05-16T07:00:21;25.70;82.30
20432;DHT22;10375;49.136;10.366;2023-05-16T07:02:49;25.70;81.00
20432;DHT22;10375;49.136;10.366;2023-05-16T07:05:16;24.50;83.70
20432;DHT22;10375;49.136;10.366;2023-05-16T07:07:43;24.40;84.60
20432;DHT22;10375;49.136;10.366;2023-05-16T07:10:11;23.80;87.30
20432;DHT22;10375;49.136;10.366;2023-05-16T07:12:41;23.00;86.70
20432;DHT22;10375;49.136;10.366;2023-05-16T07:15:09;22.10;90.30
20432;DHT22;10375;49.136;10.366;2023-05-16T07:17:36;21.20;91.10
20432;DHT22;10375;49.136;10.366;2023-05-16T07:20:05;20.40;92.60
20432;DHT22;10375;49.136;10.366;2023-05-16T07:22:32;19.40;93.00
20432;DHT22;10375;49.136;10.366;2023-05-16T07:25:00;18.90;95.00
20432;DHT22;10375;49.136;10.366;2023-05-16T07:27:27;18.80;95.10
20432;DHT22;10375;49.136;10.366;2023-05-16T07:29:55;18.90;96.00
20432;DHT22;10375;49.136;10.366;2023-05-16T07:32:23;18.80;95.10
20432;DHT22;10375;49.136;10.366;2023-05-16T07:34:50;18.40;95.80
20432;DHT22;10375;49.136;10.366;2023-05-16T07:37:18;18.20;96.30
20432;DHT22;10375;49.136;10.366;2023-05-16T07:39:46;18.00;97.00
20432;DHT22;10375;49.136;10.366;2023-05-16T07:42:13;17.90;97.20
20432;DHT22;10375;49.136;10.366;2023-05-16T07:44:40;17.60;97.70
20432;DHT22;10375;49.136;10.366;2023-05-16T07:47:07;17.40;98.00
20432;DHT22;10375;49.136;10.366;2023-05-16T07:49:35;17.70;98.70
20432;DHT22;10375;49.136;10.366;2023-05-16T07:52:02;18.30;98.70
20432;DHT22;10375;49.136;10.366;2023-05-16T07:54:31;19.40;97.30
20432;DHT22;10375;49.136;10.366;2023-05-16T07:56:59;20.50;95.50
20432;DHT22;10375;49.136;10.366;2023-05-16T07:59:27;20.70;93.80
20432;DHT22;10375;49.136;10.366;2023-05-16T08:01:55;20.40;95.00
20432;DHT22;10375;49.136;10.366;2023-05-16T08:04:22;20.20;95.20
20432;DHT22;10375;49.136;10.366;2023-05-16T08:06:49;19.90;95.70
20432;DHT22;10375;49.136;10.366;2023-05-16T08:09:16;19.30;94.60
20432;DHT22;10375;49.136;10.366;2023-05-16T08:11:45;18.60;95.90
20432;DHT22;10375;49.136;10.366;2023-05-16T08:14:12;17.80;96.80
20432;DHT22;10375;49.136;10.366;2023-05-16T08:16:40;17.30;97.50
20432;DHT22;10375;49.136;10.366;2023-05-16T08:19:07;16.80;98.90
20432;DHT22;10375;49.136;10.366;2023-05-16T08:21:34;16.50;99.50
20432;DHT22;10375;49.136;10.366;2023-05-16T08:24:02;16.30;99.90
20432;DHT22;10375;49.136;10.366;2023-05-16T08:26:31;16.20;99.90
20432;DHT22;10375;49.136;10.366;2023-05-16T08:28:58;16.20;99.90
20432;DHT22;10375;49.136;10.366;2023-05-16T08:31:25;16.30;99.90
20432;DHT22;10375;49.136;10.366;2023-05-16T08:33:52;16.30;99.90
20432;DHT22;10375;49.136;10.366;2023-05-16T08:36:20;16.20;99.90
20432;DHT22;10375;49.136;10.366;2023-05-16T08:38:48;16.10;99.90
20432;DHT22;10375;49.136;10.366;2023-05-16T08:41:16;16.10;99.90
20432;DHT22;10375;49.136;10.366;2023-05-16T08:43:44;16.40;99.90
20432;DHT22;10375;49.136;10.366;2023-05-16T08:46:11;16.50;99.90
20432;DHT22;10375;49.136;10.366;2023-05-16T08:48:41;16.50;99.90
20432;DHT22;10375;49.136;10.366;2023-05-16T08:51:09;16.40;99.90
20432;DHT22;10375;49.136;10.366;2023-05-16T08:53:45;16.10;99.90
20432;DHT22;10375;49.136;10.366;2023-05-16T08:56:15;15.90;99.90
20432;DHT22;10375;49.136;10.366;2023-05-16T08:58:43;15.60;99.90
20432;DHT22;10375;49.136;10.366;2023-05-16T09:01:11;15.40;99.90
20432;DHT22;10375;49.136;10.366;2023-05-16T09:03:39;15.20;99.90
20432;DHT22;10375;49.136;10.366;2023-05-16T09:06:06;14.90;99.90
20432;DHT22;10375;49.136;10.366;2023-05-16T09:08:34;14.80;99.90
20432;DHT22;10375;49.136;10.366;2023-05-16T09:11:01;14.70;99.90
20432;DHT22;10375;49.136;10.366;2023-05-16T09:13:29;14.70;99.90
20432;DHT22;10375;49.136;10.366;2023-05-16T09:16:13;14.80;99.90
20432;DHT22;10375;49.136;10.366;2023-05-16T09:18:43;15.20;99.90
20432;DHT22;10375;49.136;10.366;2023-05-16T09:21:12;15.40;99.90
20432;DHT22;10375;49.136;10.366;2023-05-16T09:23:41;15.60;99.90
20432;DHT22;10375;49.136;10.366;2023-05-16T09:26:09;16.10;99.90
20432;DHT22;10375;49.136;10.366;2023-05-16T09:28:39;16.50;99.90
20432;DHT22;10375;49.136;10.366;2023-05-16T09:31:24;16.90;99.90
20432;DHT22;10375;49.136;10.366;2023-05-16T09:33:56;17.00;99.90
20432;DHT22;10375;49.136;10.366;2023-05-16T09:36:25;16.90;99.90
20432;DHT22;10375;49.136;10.366;2023-05-16T09:38:52;16.70;99.90
20432;DHT22;10375;49.136;10.366;2023-05-16T09:41:21;16.50;99.90
20432;DHT22;10375;49.136;10.366;2023-05-16T09:43:48;16.40;99.90
20432;DHT22;10375;49.136;10.366;2023-05-16T09:46:16;16.10;99.90
20432;DHT22;10375;49.136;10.366;2023-05-16T09:48:46;15.80;99.90
20432;DHT22;10375;49.136;10.366;2023-05-16T09:51:14;15.70;99.90
20432;DHT22;10375;49.136;10.366;2023-05-16T09:53:42;15.40;99.90
20432;DHT22;10375;49.136;10.366;2023-05-16T09:56:11;15.30;99.90
20432;DHT22;10375;49.136;10.366;2023-05-16T09:58:40;15.20;99.90
20432;DHT22;10375;49.136;10.366;2023-05-16T10:01:08;15.20;99.90
20432;DHT22;10375;49.136;10.366;2023-05-16T10:03:37;15.20;99.90
20432;DHT22;10375;49.136;10.366;2023-05-16T10:06:05;15.20;99.90
20432;DHT22;10375;49.136;10.366;2023-05-16T10:08:34;15.30;99.90
20432;DHT22;10375;49.136;10.366;2023-05-16T10:11:04;15.30;99.90
20432;DHT22;10375;49.136;10.366;2023-05-16T10:13:34;15.30;99.90
20432;DHT22;10375;49.136;10.366;2023-05-16T10:16:08;15.50;99.90
20432;DHT22;10375;49.136;10.366;2023-05-16T10:18:38;15.80;99.90
20432;DHT22;10375;49.136;10.366;2023-05-16T10:21:08;16.10;99.90
20432;DHT22;10375;49.136;10.366;2023-05-16T10:23:40;16.30;99.90
20432;DHT22;10375;49.136;10.366;2023-05-16T10:26:09;16.60;99.90
20432;DHT22;10375;49.136;10.366;2023-05-16T10:28:37;16.80;99.90
20432;DHT22;10375;49.136;10.366;2023-05-16T10:31:07;17.10;99.80
20432;DHT22;10375;49.136;10.366;2023-05-16T10:33:35;17.10;99.90
20432;DHT22;10375;49.136;10.366;2023-05-16T10:36:03;17.10;99.90
20432;DHT22;10375;49.136;10.366;2023-05-16T10:38:31;17.50;99.90
20432;DHT22;10375;49.136;10.366;2023-05-16T10:41:00;17.50;99.20
20432;DHT22;10375;49.136;10.366;2023-05-16T10:43:30;17.60;99.90
20432;DHT22;10375;49.136;10.366;2023-05-16T10:46:06;17.90;99.90
20432;DHT22;10375;49.136;10.366;2023-05-16T10:48:39;18.10;99.80
20432;DHT22;10375;49.136;10.366;2023-05-16T10:53:53;18.10;99.00
20432;DHT22;10375;49.136;10.366;2023-05-16T10:56:24;18.00;98.70
20432;DHT22;10375;49.136;10.366;2023-05-16T10:58:53;17.90;99.60
20432;DHT22;10375;49.136;10.366;2023-05-16T11:01:28;18.00;99.70
20432;DHT22;10375;49.136;10.366;2023-05-16T11:11:42;18.90;97.80
20432;DHT22;10375;49.136;10.366;2023-05-16T11:17:03;19.30;96.50
20432;DHT22;10375;49.136;10.366;2023-05-16T11:22:09;19.40;96.90
20432;DHT22;10375;49.136;10.366;2023-05-16T11:24:38;19.50;95.40
20432;DHT22;10375;49.136;10.366;2023-05-16T11:27:06;19.70;95.40
20432;DHT22;10375;49.136;10.366;2023-05-16T11:29:34;19.90;95.90
20432;DHT22;10375;49.136;10.366;2023-05-16T11:32:05;20.00;96.10
20432;DHT22;10375;49.136;10.366;2023-05-16T11:34:35;20.00;95.50
20432;DHT22;10375;49.136;10.366;2023-05-16T11:37:05;20.00;93.60
20432;DHT22;10375;49.136;10.366;2023-05-16T11:39:33;20.20;96.10
20432;DHT22;10375;49.136;10.366;2023-05-16T11:42:00;20.30;95.10
20432;DHT22;10375;49.136;10.366;2023-05-16T11:44:28;20.40;94.20
20432;DHT22;10375;49.136;10.366;2023-05-16T11:46:55;20.70;92.90
20432;DHT22;10375;49.136;10.366;2023-05-16T11:49:22;21.00;91.80
20432;DHT22;10375;49.136;10.366;2023-05-16T11:51:53;20.60;90.50
20432;DHT22;10375;49.136;10.366;2023-05-16T11:54:20;20.00;91.70
20432;DHT22;10375;49.136;10.366;2023-05-16T11:56:48;19.50;93.00
20432;DHT22;10375;49.136;10.366;2023-05-16T11:59:16;19.50;94.50
20432;DHT22;10375;49.136;10.366;2023-05-16T12:01:43;19.50;94.40
20432;DHT22;10375;49.136;10.366;2023-05-16T12:04:12;19.40;94.00
20432;DHT22;10375;49.136;10.366;2023-05-16T12:06:41;19.20;93.30
20432;DHT22;10375;49.136;10.366;2023-05-16T12:09:12;19.40;94.10
20432;DHT22;10375;49.136;10.366;2023-05-16T12:11:44;19.80;94.40
20432;DHT22;10375;49.136;10.366;2023-05-16T12:14:11;20.00;93.10
20432;DHT22;10375;49.136;10.366;2023-05-16T12:16:39;20.20;93.60
20432;DHT22;10375;49.136;10.366;2023-05-16T12:19:12;20.20;92.80
20432;DHT22;10375;49.136;10.366;2023-05-16T12:21:39;19.90;92.50
20432;DHT22;10375;49.136;10.366;2023-05-16T12:24:10;19.70;92.20
20432;DHT22;10375;49.136;10.366;2023-05-16T12:26:39;19.80;93.00
20432;DHT22;10375;49.136;10.366;2023-05-16T12:29:09;19.90;93.40
20432;DHT22;10375;49.136;10.366;2023-05-16T12:31:40;20.20;92.00
20432;DHT22;10375;49.136;10.366;2023-05-16T12:34:18;20.40;92.10
20432;DHT22;10375;49.136;10.366;2023-05-16T12:36:51;20.60;92.50
20432;DHT22;10375;49.136;10.366;2023-05-16T12:39:19;20.50;90.70
20432;DHT22;10375;49.136;10.366;2023-05-16T12:41:47;20.50;92.80
20432;DHT22;10375;49.136;10.366;2023-05-16T12:44:16;20.30;90.50
20432;DHT22;10375;49.136;10.366;2023-05-16T12:46:51;19.90;91.80
20432;DHT22;10375;49.136;10.366;2023-05-16T12:49:23;19.90;93.00
20432;DHT22;10375;49.136;10.366;2023-05-16T12:51:54;19.70;91.60
20432;DHT22;10375;49.136;10.366;2023-05-16T12:54:23;19.60;93.10
20432;DHT22;10375;49.136;10.366;2023-05-16T12:56:51;19.80;94.10
20432;DHT22;10375;49.136;10.366;2023-05-16T12:59:18;19.90;91.40
20432;DHT22;10375;49.136;10.366;2023-05-16T13:01:46;19.40;91.60
20432;DHT22;10375;49.136;10.366;2023-05-16T13:04:13;19.00;92.90
20432;DHT22;10375;49.136;10.366;2023-05-16T13:06:45;18.70;93.80
20432;DHT22;10375;49.136;10.366;2023-05-16T13:09:25;18.70;94.40
20432;DHT22;10375;49.136;10.366;2023-05-16T13:11:58;18.70;93.20
20432;DHT22;10375;49.136;10.366;2023-05-16T13:14:25;18.40;95.20
20432;DHT22;10375;49.136;10.366;2023-05-16T13:16:53;18.60;95.30
20432;DHT22;10375;49.136;10.366;2023-05-16T13:19:20;18.80;94.90
20432;DHT22;10375;49.136;10.366;2023-05-16T13:21:49;18.80;94.90
20432;DHT22;10375;49.136;10.366;2023-05-16T13:24:16;18.80;94.80
20432;DHT22;10375;49.136;10.366;2023-05-16T13:26:43;18.80;94.30
20432;DHT22;10375;49.136;10.366;2023-05-16T13:29:10;18.30;94.90
20432;DHT22;10375;49.136;10.366;2023-05-16T13:31:38;18.10;95.20
20432;DHT22;10375;49.136;10.366;2023-05-16T13:34:05;18.10;95.60
20432;DHT22;10375;49.136;10.366;2023-05-16T13:36:32;18.00;94.60
20432;DHT22;10375;49.136;10.366;2023-05-16T13:39:19;17.70;95.30
20432;DHT22;10375;49.136;10.366;2023-05-16T13:41:47;17.80;95.40
20432;DHT22;10375;49.136;10.366;2023-05-16T13:44:15;17.90;95.00
20432;DHT22;10375;49.136;10.366;2023-05-16T13:46:43;18.00;95.70
20432;DHT22;10375;49.136;10.366;2023-05-16T13:49:10;18.00;95.00
20432;DHT22;10375;49.136;10.366;2023-05-16T13:51:37;18.00;94.90
20432;DHT22;10375;49.136;10.366;2023-05-16T13:54:05;17.70;94.40
20432;DHT22;10375;49.136;10.366;2023-05-16T13:56:32;17.40;95.40
20432;DHT22;10375;49.136;10.366;2023-05-16T13:58:59;17.00;95.50
20432;DHT22;10375;49.136;10.366;2023-05-16T14:01:32;16.70;96.30
20432;DHT22;10375;49.136;10.366;2023-05-16T14:04:00;16.70;97.80
20432;DHT22;10375;49.136;10.366;2023-05-16T14:06:27;16.90;98.20
20432;DHT22;10375;49.136;10.366;2023-05-16T14:08:54;17.40;97.80
20432;DHT22;10375;49.136;10.366;2023-05-16T14:11:21;17.50;96.10
20432;DHT22;10375;49.136;10.366;2023-05-16T14:13:56;17.50;96.70
20432;DHT22;10375;49.136;10.366;2023-05-16T14:16:23;17.50;95.90
20432;DHT22;10375;49.136;10.366;2023-05-16T14:18:50;17.60;96.70
20432;DHT22;10375;49.136;10.366;2023-05-16T14:21:17;17.60;95.70
20432;DHT22;10375;49.136;10.366;2023-05-16T14:23:45;17.30;95.90
20432;DHT22;10375;49.136;10.366;2023-05-16T14:26:12;16.90;96.30
20432;DHT22;10375;49.136;10.366;2023-05-16T14:28:40;16.80;96.30
20432;DHT22;10375;49.136;10.366;2023-05-16T14:31:07;16.70;97.10
20432;DHT22;10375;49.136;10.366;2023-05-16T14:33:34;16.40;97.10
20432;DHT22;10375;49.136;10.366;2023-05-16T14:36:02;16.30;98.10
20432;DHT22;10375;49.136;10.366;2023-05-16T14:38:32;16.40;97.60
20432;DHT22;10375;49.136;10.366;2023-05-16T14:40:59;16.40;98.20
20432;DHT22;10375;49.136;10.366;2023-05-16T14:43:27;16.30;97.70
20432;DHT22;10375;49.136;10.366;2023-05-16T14:45:54;16.20;97.20
20432;DHT22;10375;49.136;10.366;2023-05-16T14:48:21;16.20;97.70
20432;DHT22;10375;49.136;10.366;2023-05-16T14:50:48;16.20;98.20
20432;DHT22;10375;49.136;10.366;2023-05-16T14:53:15;16.30;98.20
20432;DHT22;10375;49.136;10.366;2023-05-16T14:55:42;16.30;98.30
20432;DHT22;10375;49.136;10.366;2023-05-16T14:58:10;16.30;97.90
20432;DHT22;10375;49.136;10.366;2023-05-16T15:00:37;16.30;98.30
20432;DHT22;10375;49.136;10.366;2023-05-16T15:03:04;16.30;98.20
20432;DHT22;10375;49.136;10.366;2023-05-16T15:05:32;16.20;98.80
20432;DHT22;10375;49.136;10.366;2023-05-16T15:07:59;16.10;97.90
20432;DHT22;10375;49.136;10.366;2023-05-16T15:10:27;15.90;97.80
20432;DHT22;10375;49.136;10.366;2023-05-16T15:12:54;15.70;97.80
20432;DHT22;10375;49.136;10.366;2023-05-16T15:15:22;15.50;97.90
20432;DHT22;10375;49.136;10.366;2023-05-16T15:17:49;15.30;98.30
20432;DHT22;10375;49.136;10.366;2023-05-16T15:20:16;15.30;99.20
20432;DHT22;10375;49.136;10.366;2023-05-16T15:22:46;15.40;98.80
20432;DHT22;10375;49.136;10.366;2023-05-16T15:25:13;15.50;97.80
20432;DHT22;10375;49.136;10.366;2023-05-16T15:27:40;15.30;98.30
20432;DHT22;10375;49.136;10.366;2023-05-16T15:30:10;15.20;98.10
20432;DHT22;10375;49.136;10.366;2023-05-16T15:32:38;15.00;98.20
20432;DHT22;10375;49.136;10.366;2023-05-16T15:35:05;14.90;98.90
20432;DHT22;10375;49.136;10.366;2023-05-16T15:37:33;14.80;98.80
20432;DHT22;10375;49.136;10.366;2023-05-16T15:40:00;14.70;98.80
20432;DHT22;10375;49.136;10.366;2023-05-16T15:42:30;14.60;98.90
20432;DHT22;10375;49.136;10.366;2023-05-16T15:44:57;14.40;98.90
20432;DHT22;10375;49.136;10.366;2023-05-16T15:47:24;14.30;99.40
20432;DHT22;10375;49.136;10.366;2023-05-16T15:49:52;14.20;99.40